createdAt,value
2019-03-01T00:02:40.121Z,96323.98
2019-03-01T00:05:47.119Z,96312.20
2019-03-01T00:08:55.475Z,96313.54
2019-03-01T00:12:02.469Z,96306.52
2019-03-01T00:15:10.890Z,96314.22
2019-03-01T00:18:17.899Z,96302.97
2019-03-01T00:21:24.913Z,96303.55
2019-03-01T00:24:33.284Z,96303.23
2019-03-01T00:27:40.409Z,96297.72
2019-03-01T00:30:48.789Z,96301.79
2019-03-01T00:33:56.127Z,96295.68
2019-03-01T00:37:04.443Z,96293.62
2019-03-01T00:40:12.862Z,96302.01
2019-03-01T00:43:19.859Z,96294.30
2019-03-01T00:45:48.287Z,96301.82
2019-03-01T00:48:16.681Z,96307.81
2019-03-01T00:50:45.081Z,96309.13
2019-03-01T00:53:13.541Z,96311.45
2019-03-01T00:55:41.945Z,96311.14
2019-03-01T00:58:10.348Z,96316.14
2019-03-01T01:03:32.525Z,96315.19
2019-03-01T01:08:35.203Z,96307.77
2019-03-01T01:11:03.633Z,96297.03
2019-03-01T01:13:32.034Z,96302.84
2019-03-01T01:16:00.433Z,96303.02
2019-03-01T01:18:28.866Z,96301.69
2019-03-01T01:20:57.260Z,96301.35
2019-03-01T01:23:25.666Z,96287.48
2019-03-01T01:28:28.069Z,96295.91
2019-03-01T01:30:56.508Z,96281.54
2019-03-01T01:33:24.908Z,96281.20
2019-03-01T01:35:53.297Z,96285.85
2019-03-01T01:38:21.711Z,96280.55
2019-03-01T01:40:50.106Z,96272.61
2019-03-01T01:43:18.504Z,96274.95
2019-03-01T01:45:46.931Z,96277.94
2019-03-01T01:48:15.336Z,96269.38
2019-03-01T01:50:43.743Z,96267.73
2019-03-01T01:55:45.645Z,96259.99
2019-03-01T01:58:14.047Z,96252.72
2019-03-01T02:00:42.516Z,96252.22
2019-03-01T02:03:10.915Z,96246.92
2019-03-01T02:05:39.381Z,96249.73
2019-03-01T02:08:07.837Z,96244.61
2019-03-01T02:10:55.431Z,96242.63
2019-03-01T02:13:23.847Z,96231.23
2019-03-01T02:15:52.245Z,96232.41
2019-03-01T02:18:20.656Z,96231.77
2019-03-01T02:23:23.353Z,96220.22
2019-03-01T02:25:51.777Z,96210.10
2019-03-01T02:28:20.180Z,96214.75
2019-03-01T02:33:43.057Z,96208.58
2019-03-01T02:36:11.496Z,96199.00
2019-03-01T02:38:39.897Z,96197.98
2019-03-01T02:41:08.289Z,96197.98
2019-03-01T02:43:36.722Z,96185.08
2019-03-01T02:46:05.140Z,96180.77
2019-03-01T02:48:33.524Z,96174.42
2019-03-01T02:51:01.963Z,96169.59
2019-03-01T02:53:30.361Z,96168.78
2019-03-01T02:55:58.767Z,96164.43
2019-03-01T03:01:20.135Z,96166.09
2019-03-01T03:08:58.281Z,96158.86
2019-03-01T03:11:26.697Z,96157.84
2019-03-01T03:13:55.101Z,96156.73
2019-03-01T03:16:23.533Z,96147.62
2019-03-01T03:18:51.984Z,96144.94
2019-03-01T03:21:20.377Z,96136.95
2019-03-01T03:23:48.838Z,96129.69
2019-03-01T03:29:04.689Z,96129.56
2019-03-01T03:31:33.116Z,96127.77
2019-03-01T03:34:01.511Z,96129.47
2019-03-01T03:36:29.923Z,96122.71
2019-03-01T03:38:58.325Z,96121.86
2019-03-01T03:41:26.790Z,96113.92
2019-03-01T03:43:55.206Z,96112.46
2019-03-01T03:46:23.618Z,96111.00
2019-03-01T03:48:52.010Z,96110.70
2019-03-01T03:51:20.448Z,96114.67
2019-03-01T03:53:48.858Z,96120.48
2019-03-01T03:56:17.344Z,96108.88
2019-03-01T04:01:58.263Z,96107.06
2019-03-01T04:07:00.147Z,96102.72
2019-03-01T04:09:47.917Z,96106.05
2019-03-01T04:12:16.315Z,96104.89
2019-03-01T04:14:44.717Z,96098.27
2019-03-01T04:17:32.433Z,96088.12
2019-03-01T04:20:00.845Z,96077.36
2019-03-01T04:22:41.519Z,96082.99
2019-03-01T04:25:29.266Z,96088.77
2019-03-01T04:27:57.703Z,96088.33
2019-03-01T04:30:26.104Z,96090.64
2019-03-01T04:32:54.501Z,96088.02
2019-03-01T04:35:22.922Z,96084.91
2019-03-01T04:37:51.324Z,96086.06
2019-03-01T04:40:19.722Z,96081.45
2019-03-01T04:42:48.150Z,96077.68
2019-03-01T04:45:56.468Z,96088.78
2019-03-01T04:48:24.895Z,96087.93
2019-03-01T04:50:53.291Z,96095.23
2019-03-01T04:53:40.912Z,96091.26
2019-03-01T04:56:09.305Z,96085.31
2019-03-01T04:58:37.752Z,96090.81
2019-03-01T05:03:42.900Z,96064.12
2019-03-01T05:06:11.317Z,96064.66
2019-03-01T05:08:39.721Z,96066.63
2019-03-01T05:11:08.210Z,96059.06
2019-03-01T05:16:10.586Z,96058.38
2019-03-01T05:18:39.087Z,96058.83
2019-03-01T05:21:07.485Z,96057.33
2019-03-01T05:26:50.172Z,96055.02
2019-03-01T05:29:18.561Z,96045.55
2019-03-01T05:31:46.960Z,96042.06
2019-03-01T05:34:15.405Z,96044.53
2019-03-01T05:36:43.806Z,96042.88
2019-03-01T05:39:12.213Z,96045.66
2019-03-01T05:41:40.686Z,96046.13
2019-03-01T05:44:09.087Z,96046.42
2019-03-01T05:46:37.485Z,96045.23
2019-03-01T05:49:25.239Z,96048.19
2019-03-01T05:51:53.639Z,96037.46
2019-03-01T05:54:22.037Z,96036.65
2019-03-01T05:56:50.471Z,96036.31
2019-03-01T05:59:58.775Z,96034.52
2019-03-01T06:03:07.200Z,96041.61
2019-03-01T06:05:35.604Z,96052.20
2019-03-01T06:08:42.824Z,96052.57
2019-03-01T06:11:51.122Z,96062.99
2019-03-01T06:14:59.521Z,96057.09
2019-03-01T06:18:06.515Z,96063.44
2019-03-01T06:21:15.014Z,96066.12
2019-03-01T06:24:23.395Z,96061.23
2019-03-01T06:27:04.073Z,96063.91
2019-03-01T06:30:12.388Z,96067.63
2019-03-01T06:33:21.126Z,96066.33
2019-03-01T06:36:29.445Z,96076.82
2019-03-01T06:39:37.997Z,96074.22
2019-03-01T06:42:45.001Z,96055.73
2019-03-01T06:45:52.146Z,96051.50
2019-03-01T06:51:29.336Z,96040.25
2019-03-01T06:53:57.817Z,96031.63
2019-03-01T06:56:26.205Z,96036.24
2019-03-01T06:59:34.888Z,96040.38
2019-03-01T07:07:25.866Z,96046.02
2019-03-01T07:09:54.263Z,96047.86
2019-03-01T07:14:56.281Z,96035.37
2019-03-01T07:17:24.704Z,96038.68
2019-03-01T07:19:53.094Z,96030.89
2019-03-01T07:22:21.491Z,96033.02
2019-03-01T07:27:23.579Z,96040.10
2019-03-01T07:30:04.375Z,96035.32
2019-03-01T07:32:32.772Z,96036.48
2019-03-01T07:35:01.155Z,96032.01
2019-03-01T07:37:29.589Z,96035.13
2019-03-01T07:39:57.991Z,96044.84
2019-03-01T07:42:26.385Z,96035.55
2019-03-01T07:47:28.275Z,96038.14
2019-03-01T07:49:57.056Z,96039.57
2019-03-01T07:55:00.655Z,96045.62
2019-03-01T08:02:57.543Z,96045.40
2019-03-01T08:05:25.959Z,96030.55
2019-03-01T08:07:56.261Z,96031.53
2019-03-01T08:12:58.797Z,96045.25
2019-03-01T08:18:20.829Z,96042.97
2019-03-01T08:20:49.262Z,96044.48
2019-03-01T08:23:17.649Z,96042.16
2019-03-01T08:25:46.049Z,96034.89
2019-03-01T08:28:14.469Z,96044.17
2019-03-01T08:30:45.695Z,96044.01
2019-03-01T08:33:24.944Z,96038.53
2019-03-01T08:36:12.531Z,96044.29
2019-03-01T08:41:14.605Z,96050.59
2019-03-01T08:43:44.726Z,96052.73
2019-03-01T08:46:13.176Z,96049.38
2019-03-01T08:48:41.585Z,96055.69
2019-03-01T08:51:09.969Z,96051.72
2019-03-01T08:53:38.395Z,96053.02
2019-03-01T08:56:06.785Z,96052.00
2019-03-01T08:58:37.729Z,96055.64
2019-03-01T09:01:25.564Z,96070.19
2019-03-01T09:04:37.740Z,96063.25
2019-03-01T09:07:23.240Z,96068.76
2019-03-01T09:09:53.758Z,96066.77
2019-03-01T09:12:21.761Z,96068.20
2019-03-01T09:17:23.777Z,96071.59
2019-03-01T09:19:52.158Z,96067.52
2019-03-01T09:22:20.594Z,96072.85
2019-03-01T09:24:48.986Z,96082.67
2019-03-01T09:27:17.377Z,96078.03
2019-03-01T09:32:20.142Z,96079.73
2019-03-01T09:35:20.528Z,96073.49
2019-03-01T09:40:38.090Z,96086.02
2019-03-01T09:43:06.483Z,96069.38
2019-03-01T09:45:54.112Z,96064.27
2019-03-01T09:48:22.505Z,96064.59
2019-03-01T09:50:50.927Z,96071.35
2019-03-01T09:53:19.338Z,96065.92
2019-03-01T09:55:47.731Z,96059.98
2019-03-01T09:58:16.127Z,96064.11
2019-03-01T10:01:24.486Z,96062.28
2019-03-01T10:03:52.879Z,96058.31
2019-03-01T10:06:21.278Z,96052.72
2019-03-01T10:08:49.691Z,96066.41
2019-03-01T10:11:18.083Z,96056.81
2019-03-01T10:13:46.487Z,96062.58
2019-03-01T10:16:14.917Z,96057.62
2019-03-01T10:18:43.311Z,96057.45
2019-03-01T10:21:11.710Z,96059.91
2019-03-01T10:26:14.345Z,96055.51
2019-03-01T10:31:16.400Z,96067.91
2019-03-01T10:33:44.786Z,96057.03
2019-03-01T10:36:13.364Z,96057.52
2019-03-01T10:39:00.951Z,96057.52
2019-03-01T10:41:29.359Z,96060.16
2019-03-01T10:43:57.779Z,96058.66
2019-03-01T10:46:26.158Z,96063.27
2019-03-01T10:51:29.014Z,96044.81
2019-03-01T10:54:16.684Z,96041.83
2019-03-01T10:56:45.079Z,96042.67
2019-03-01T10:59:13.471Z,96045.47
2019-03-01T11:02:01.108Z,96044.74
2019-03-01T11:04:48.820Z,96035.52
2019-03-01T11:07:17.251Z,96031.56
2019-03-01T11:09:45.642Z,96043.48
2019-03-01T11:12:14.040Z,96035.42
2019-03-01T11:17:16.056Z,96039.53
2019-03-01T11:19:44.506Z,96034.26
2019-03-01T11:22:12.904Z,96032.97
2019-03-01T11:24:41.303Z,96025.70
2019-03-01T11:27:12.929Z,96032.61
2019-03-01T11:29:39.927Z,96028.65
2019-03-01T11:32:08.329Z,96032.61
2019-03-01T11:37:11.307Z,96025.03
2019-03-01T11:42:13.893Z,96014.44
2019-03-01T11:44:42.290Z,96013.61
2019-03-01T11:47:50.672Z,96014.27
2019-03-01T11:53:25.865Z,96016.12
2019-03-01T11:55:54.270Z,96023.20
2019-03-01T11:58:22.658Z,96011.83
2019-03-01T12:00:52.209Z,96023.70
2019-03-01T12:03:21.207Z,96025.53
2019-03-01T12:05:49.597Z,96042.52
2019-03-01T12:08:18.065Z,96030.31
2019-03-01T12:11:05.702Z,96031.30
2019-03-01T12:13:34.124Z,96029.64
2019-03-01T12:16:02.562Z,96026.35
2019-03-01T12:18:30.905Z,96028.99
2019-03-01T12:20:59.400Z,96014.80
2019-03-01T12:23:27.814Z,96027.14
2019-03-01T12:25:56.214Z,96021.67
2019-03-01T12:28:24.636Z,96025.31
2019-03-01T12:30:53.040Z,96017.88
2019-03-01T12:33:21.444Z,96021.02
2019-03-01T12:38:35.927Z,96030.24
2019-03-01T12:43:38.273Z,96013.30
2019-03-01T12:46:06.703Z,96016.25
2019-03-01T12:48:35.100Z,96022.68
2019-03-01T12:51:03.497Z,96018.38
2019-03-01T12:53:31.942Z,96017.28
2019-03-01T12:56:00.340Z,96014.49
2019-03-01T12:58:28.728Z,96016.47
2019-03-01T13:00:57.171Z,96015.46
2019-03-01T13:03:47.939Z,96016.47
2019-03-01T13:06:16.359Z,96013.02
2019-03-01T13:08:47.814Z,96021.42
2019-03-01T13:11:16.324Z,96020.10
2019-03-01T13:16:19.084Z,96019.28
2019-03-01T13:21:21.429Z,96014.32
2019-03-01T13:23:49.867Z,96009.86
2019-03-01T13:26:18.264Z,96010.36
2019-03-01T13:28:47.007Z,96010.69
2019-03-01T13:33:51.079Z,96003.77
2019-03-01T13:36:19.499Z,95997.99
2019-03-01T13:38:47.891Z,95997.98
2019-03-01T13:41:28.536Z,95995.98
2019-03-01T13:43:56.960Z,95997.95
2019-03-01T13:46:26.435Z,95998.61
2019-03-01T13:48:55.490Z,95994.84
2019-03-01T13:51:23.881Z,96003.07
2019-03-01T13:53:52.309Z,95996.98
2019-03-01T13:56:40.030Z,95998.45
2019-03-01T13:59:08.494Z,96001.58
2019-03-01T14:04:30.145Z,96000.56
2019-03-01T14:06:58.537Z,95999.39
2019-03-01T14:09:46.108Z,96001.84
2019-03-01T14:12:22.003Z,96010.39
2019-03-01T14:14:50.406Z,96007.87
2019-03-01T14:19:52.828Z,96012.67
2019-03-01T14:24:55.288Z,96025.05
2019-03-01T14:27:26.330Z,96018.61
2019-03-01T14:29:53.835Z,96015.98
2019-03-01T14:32:22.209Z,96018.73
2019-03-01T14:34:50.645Z,96013.23
2019-03-01T14:37:19.419Z,96013.89
2019-03-01T14:40:08.379Z,96020.20
2019-03-01T14:42:48.751Z,96026.98
2019-03-01T14:45:36.591Z,96012.28
2019-03-01T14:48:24.304Z,96024.16
2019-03-01T14:53:26.676Z,96017.28
2019-03-01T14:56:35.882Z,96018.91
2019-03-01T14:59:45.135Z,96021.24
2019-03-01T15:02:52.122Z,96015.14
2019-03-01T15:11:44.369Z,96035.50
2019-03-01T15:14:13.667Z,96026.27
2019-03-01T15:16:43.317Z,96020.80
2019-03-01T15:19:12.774Z,96029.71
2019-03-01T15:22:00.382Z,96021.97
2019-03-01T15:24:28.780Z,96023.94
2019-03-01T15:27:00.186Z,96028.55
2019-03-01T15:29:28.164Z,96032.02
2019-03-01T15:31:57.458Z,96031.53
2019-03-01T15:34:25.850Z,96030.87
2019-03-01T15:39:28.999Z,96035.83
2019-03-01T15:41:57.434Z,96034.84
2019-03-01T15:44:25.831Z,96037.00
2019-03-01T15:46:54.672Z,96035.50
2019-03-01T15:49:23.569Z,96044.28
2019-03-01T15:51:53.212Z,96046.42
2019-03-01T15:54:21.603Z,96052.69
2019-03-01T15:56:50.037Z,96048.56
2019-03-01T15:59:18.424Z,96053.19
2019-03-01T16:01:47.149Z,96053.52
2019-03-01T16:06:55.195Z,96070.20
2019-03-01T16:09:21.803Z,96064.92
2019-03-01T16:12:10.855Z,96062.94
2019-03-01T16:17:13.130Z,96070.19
2019-03-01T16:22:18.937Z,96079.79
2019-03-01T16:24:46.102Z,96080.62
2019-03-01T16:27:15.411Z,96076.83
2019-03-01T16:29:44.589Z,96090.33
2019-03-01T16:32:13.005Z,96088.04
2019-03-01T16:34:42.387Z,96086.69
2019-03-01T16:37:11.519Z,96091.81
2019-03-01T16:39:39.935Z,96089.84
2019-03-01T16:42:08.335Z,96088.67
2019-03-01T16:44:36.726Z,96096.74
2019-03-01T16:52:12.966Z,96098.25
2019-03-01T16:54:41.362Z,96105.00
2019-03-01T16:59:43.897Z,96116.06
2019-03-01T17:02:12.322Z,96123.97
2019-03-01T17:04:40.713Z,96124.28
2019-03-01T17:07:09.182Z,96122.31
2019-03-01T17:09:37.602Z,96135.84
2019-03-01T17:12:05.999Z,96122.47
2019-03-01T17:14:34.896Z,96134.84
2019-03-01T17:19:38.549Z,96136.00
2019-03-01T17:22:06.982Z,96145.54
2019-03-01T17:24:54.579Z,96149.49
2019-03-01T17:27:22.995Z,96157.05
2019-03-01T17:29:51.391Z,96161.86
2019-03-01T17:32:19.837Z,96158.71
2019-03-01T17:34:48.518Z,96161.66
2019-03-01T17:37:16.914Z,96156.53
2019-03-01T17:39:45.304Z,96158.19
2019-03-01T17:42:13.722Z,96163.12
2019-03-01T17:44:44.599Z,96166.76
2019-03-01T17:47:12.238Z,96170.86
2019-03-01T17:52:14.575Z,96174.81
2019-03-01T17:54:42.974Z,96176.78
2019-03-01T17:57:33.105Z,96185.19
2019-03-01T18:00:01.344Z,96185.01
2019-03-01T18:02:29.744Z,96190.23
2019-03-01T18:04:58.161Z,96188.92
2019-03-01T18:07:27.226Z,96197.72
2019-03-01T18:09:56.698Z,96203.16
2019-03-01T18:12:25.151Z,96203.98
2019-03-01T18:14:53.539Z,96207.43
2019-03-01T18:17:21.938Z,96205.45
2019-03-01T18:19:50.411Z,96211.57
2019-03-01T18:22:18.842Z,96213.70
2019-03-01T18:24:49.970Z,96217.49
2019-03-01T18:29:51.698Z,96227.63
2019-03-01T18:32:20.162Z,96231.73
2019-03-01T18:34:48.566Z,96238.16
2019-03-01T18:37:19.357Z,96235.80
2019-03-01T18:42:21.584Z,96236.09
2019-03-01T18:47:24.002Z,96240.65
2019-03-01T18:49:55.245Z,96235.03
2019-03-01T18:54:56.900Z,96232.05
2019-03-01T18:59:59.927Z,96226.23
2019-03-01T19:02:29.310Z,96236.61
2019-03-01T19:05:00.649Z,96230.31
2019-03-01T19:07:28.618Z,96240.98
2019-03-01T19:10:09.814Z,96241.45
2019-03-01T19:12:28.179Z,96247.01
2019-03-01T19:14:56.594Z,96248.83
2019-03-01T19:20:02.093Z,96252.57
2019-03-01T19:22:29.391Z,96254.53
2019-03-01T19:24:59.192Z,96252.57
2019-03-01T19:27:50.488Z,96253.95
2019-03-01T19:30:57.004Z,96256.90
2019-03-01T19:33:25.506Z,96260.67
2019-03-01T19:36:13.265Z,96252.57
2019-03-01T19:41:15.590Z,96261.78
2019-03-01T19:46:37.034Z,96279.61
2019-03-01T19:51:39.420Z,96284.02
2019-03-01T19:56:42.141Z,96284.52
2019-03-01T20:01:44.471Z,96286.80
2019-03-01T20:04:12.880Z,96288.62
2019-03-01T20:06:43.532Z,96291.58
2019-03-01T20:09:51.468Z,96292.54
2019-03-01T20:12:19.847Z,96297.98
2019-03-01T20:14:48.242Z,96300.97
2019-03-01T20:17:16.691Z,96303.10
2019-03-01T20:19:47.448Z,96308.23
2019-03-01T20:22:55.890Z,96309.89
2019-03-01T20:28:32.451Z,96317.80
2019-03-01T20:31:01.594Z,96317.09
2019-03-01T20:33:31.052Z,96321.25
2019-03-01T20:35:59.496Z,96321.92
2019-03-01T20:38:27.909Z,96317.16
2019-03-01T20:40:56.306Z,96320.46
2019-03-01T20:43:24.786Z,96323.09
2019-03-01T20:45:53.191Z,96322.06
2019-03-01T20:48:21.598Z,96314.52
2019-03-01T20:50:51.053Z,96322.24
2019-03-01T20:53:20.182Z,96325.05
2019-03-01T20:55:48.581Z,96326.38
2019-03-01T20:58:57.069Z,96319.93
2019-03-01T21:01:44.801Z,96329.64
2019-03-01T21:04:13.300Z,96327.02
2019-03-01T21:06:41.715Z,96332.11
2019-03-01T21:09:10.114Z,96334.56
2019-03-01T21:11:38.544Z,96333.09
2019-03-01T21:14:06.935Z,96337.37
2019-03-01T21:16:35.335Z,96339.54
2019-03-01T21:19:05.811Z,96332.95
2019-03-01T21:21:33.878Z,96335.91
2019-03-01T21:24:02.281Z,96337.08
2019-03-01T21:26:30.856Z,96340.39
2019-03-01T21:28:59.263Z,96343.02
2019-03-01T21:31:46.929Z,96346.01
2019-03-01T21:34:15.359Z,96348.29
2019-03-01T21:37:03.971Z,96346.48
2019-03-01T21:39:33.223Z,96349.78
2019-03-01T21:42:01.624Z,96350.46
2019-03-01T21:44:30.052Z,96347.83
2019-03-01T21:46:58.453Z,96346.86
2019-03-01T21:50:07.790Z,96343.41
2019-03-01T21:52:36.993Z,96348.67
2019-03-01T21:55:45.340Z,96342.91
2019-03-01T21:58:13.735Z,96348.50
2019-03-01T22:00:42.143Z,96353.77
2019-03-01T22:03:10.573Z,96374.02
2019-03-01T22:05:38.978Z,96355.05
2019-03-01T22:08:09.506Z,96361.17
2019-03-01T22:13:11.450Z,96364.77
2019-03-01T22:18:13.890Z,96374.27
2019-03-01T22:20:44.804Z,96368.19
2019-03-01T22:23:15.721Z,96369.19
2019-03-01T22:25:42.568Z,96375.09
2019-03-01T22:28:10.988Z,96373.10
2019-03-01T22:30:39.382Z,96378.52
2019-03-01T22:33:07.780Z,96383.39
2019-03-01T22:35:36.226Z,96381.86
2019-03-01T22:38:05.538Z,96375.52
2019-03-01T22:40:34.779Z,96377.66
2019-03-01T22:43:03.214Z,96378.47
2019-03-01T22:45:31.621Z,96381.45
2019-03-01T22:48:00.006Z,96381.64
2019-03-01T22:50:28.423Z,96380.00
2019-03-01T22:52:56.820Z,96384.91
2019-03-01T22:55:25.226Z,96386.05
2019-03-01T22:57:53.627Z,96381.06
2019-03-01T23:01:01.968Z,96383.23
2019-03-01T23:06:04.082Z,96380.50
2019-03-01T23:08:35.482Z,96378.15
2019-03-01T23:14:10.743Z,96380.92
2019-03-01T23:16:39.135Z,96377.16
2019-03-01T23:19:27.085Z,96373.20
2019-03-01T23:21:55.483Z,96373.56
2019-03-01T23:24:23.887Z,96365.48
2019-03-01T23:26:53.640Z,96368.26
2019-03-01T23:29:22.406Z,96374.66
2019-03-01T23:34:38.960Z,96377.22
2019-03-01T23:37:08.417Z,96376.61
2019-03-01T23:39:36.820Z,96374.84
2019-03-01T23:42:05.231Z,96378.64
2019-03-01T23:44:33.625Z,96375.84
2019-03-01T23:47:02.864Z,96369.75
2019-03-01T23:52:46.042Z,96382.92
2019-03-01T23:55:15.600Z,96385.23
2019-03-01T23:57:44.638Z,96375.66
